Time;durP1;ratioP1;P1;durP2;ratioP2;P2;SDS_P1;SDS_P2;PMS_P1;PMS_P2;Temp;Humidity;BMP_temperature;BMP_pressure;BME280_temperature;BME280_humidity;BME280_pressure;Samples;Min_cycle;Max_cycle;Signal;HPM_P1;HPM_P2
2023/12/30 00:01:58;;;;;;;0.00;0.00;;;;;;;8.62;100.00;98634.06;5133782;27;20311;-52
2023/12/30 00:04:47;;;;;;;0.00;0.00;;;;;;;8.70;100.00;98637.91;5135240;27;20239;-52
2023/12/30 00:07:34;;;;;;;0.10;0.10;;;;;;;8.59;100.00;98641.25;5135126;27;20193;-52
2023/12/30 00:10:21;;;;;;;0.00;0.00;;;;;;;8.67;100.00;98658.38;5134886;27;20304;-51
2023/12/30 00:13:08;;;;;;;0.10;0.10;;;;;;;8.83;100.00;98645.88;5134896;27;20189;-52
2023/12/30 00:15:55;;;;;;;0.00;0.00;;;;;;;8.89;100.00;98634.94;5134780;27;20182;-52
2023/12/30 00:18:42;;;;;;;0.10;0.10;;;;;;;9.02;100.00;98629.69;5133299;27;20225;-52
2023/12/30 00:21:30;;;;;;;0.00;0.00;;;;;;;9.08;100.00;98618.72;5134824;27;20231;-52
2023/12/30 00:24:17;;;;;;;0.00;0.00;;;;;;;9.16;100.00;98614.59;5134950;27;20267;-52
2023/12/30 00:27:05;;;;;;;0.10;0.10;;;;;;;9.17;100.00;98610.16;5134551;27;20220;-52
2023/12/30 00:29:52;;;;;;;0.10;0.10;;;;;;;9.12;100.00;98601.69;5134657;27;20193;-52
2023/12/30 00:32:40;;;;;;;0.10;0.10;;;;;;;9.16;100.00;98605.81;5133367;27;20189;-52
2023/12/30 00:35:27;;;;;;;0.07;0.07;;;;;;;9.17;100.00;98607.53;5134303;27;20197;-51
2023/12/30 00:38:15;;;;;;;0.10;0.10;;;;;;;9.28;100.00;98606.81;5134329;27;20704;-51
2023/12/30 00:41:09;;;;;;;0.00;0.00;;;;;;;9.20;100.00;98603.81;5134435;27;20197;-52
2023/12/30 00:43:58;;;;;;;0.00;0.00;;;;;;;9.19;100.00;98621.47;5134479;27;20204;-52
2023/12/30 00:46:44;;;;;;;0.00;0.00;;;;;;;9.22;100.00;98610.69;5134391;27;20204;-52
2023/12/30 00:49:31;;;;;;;0.00;0.00;;;;;;;9.20;100.00;98609.13;5133174;27;20189;-52
2023/12/30 00:52:18;;;;;;;0.10;0.10;;;;;;;9.22;100.00;98613.34;5134309;27;20190;-52
2023/12/30 00:55:09;;;;;;;0.10;0.10;;;;;;;9.26;100.00;98611.31;5133166;27;20197;-51
2023/12/30 00:57:55;;;;;;;0.10;0.10;;;;;;;9.34;100.00;98617.78;5133870;27;20699;-52
2023/12/30 01:00:42;;;;;;;0.03;0.03;;;;;;;9.34;100.00;98619.59;5134166;27;20268;-52
2023/12/30 01:03:29;;;;;;;0.00;0.00;;;;;;;9.29;100.00;98627.84;5132828;27;20247;-52
2023/12/30 01:06:16;;;;;;;0.10;0.10;;;;;;;9.30;100.00;98642.75;5134098;27;20185;-52
2023/12/30 01:09:03;;;;;;;0.00;0.00;;;;;;;9.33;100.00;98641.69;5133958;27;20193;-52
2023/12/30 01:11:52;;;;;;;0.00;0.00;;;;;;;9.30;100.00;98644.53;5133009;27;20190;-52
2023/12/30 01:14:39;;;;;;;0.10;0.10;;;;;;;9.18;100.00;98644.41;5132934;27;20664;-52
2023/12/30 01:17:26;;;;;;;0.10;0.10;;;;;;;9.17;100.00;98642.72;5131374;27;20726;-52
2023/12/30 01:20:13;;;;;;;0.00;0.00;;;;;;;9.23;100.00;98648.53;5133511;27;20221;-52
2023/12/30 01:23:00;;;;;;;0.00;0.00;;;;;;;9.17;100.00;98641.88;5133758;27;20189;-52
2023/12/30 01:25:47;;;;;;;0.10;0.10;;;;;;;9.15;100.00;98647.22;5133884;27;20239;-52
2023/12/30 01:28:36;;;;;;;0.10;0.10;;;;;;;9.16;100.00;98641.00;5134058;27;20197;-51
2023/12/30 01:31:23;;;;;;;0.10;0.10;;;;;;;9.04;100.00;98647.09;5134239;27;20255;-52
2023/12/30 01:34:09;;;;;;;0.00;0.00;;;;;;;9.06;100.00;98660.22;5131568;27;20194;-52
2023/12/30 01:36:56;;;;;;;0.00;0.00;;;;;;;9.06;100.00;98660.22;5133930;27;20279;-52
2023/12/30 01:39:43;;;;;;;0.00;0.00;;;;;;;9.01;100.00;98664.97;5133029;28;20189;-51
2023/12/30 01:42:30;;;;;;;0.10;0.10;;;;;;;8.97;100.00;98672.22;5139161;27;20189;-51
2023/12/30 01:45:18;;;;;;;0.10;0.10;;;;;;;8.96;100.00;98672.31;5139722;27;20193;-51
2023/12/30 01:48:06;;;;;;;0.10;0.10;;;;;;;9.05;100.00;98669.94;5139446;27;20193;-52
2023/12/30 01:50:53;;;;;;;0.00;0.00;;;;;;;9.04;100.00;98670.03;5140780;27;20679;-52
2023/12/30 01:53:42;;;;;;;0.10;0.10;;;;;;;9.01;100.00;98664.97;5140711;27;20282;-52
2023/12/30 01:56:30;;;;;;;0.00;0.00;;;;;;;9.04;100.00;98673.53;5140714;27;20253;-52
2023/12/30 01:59:19;;;;;;;0.10;0.10;;;;;;;9.00;100.00;98682.59;5139593;27;20188;-52
2023/12/30 02:02:07;;;;;;;0.10;0.10;;;;;;;9.13;100.00;98682.63;5138335;27;20196;-51
2023/12/30 02:04:55;;;;;;;0.00;0.00;;;;;;;9.14;100.00;98673.75;5139593;27;20193;-51
2023/12/30 02:07:45;;;;;;;0.00;0.00;;;;;;;9.07;100.00;98677.75;5138930;27;20239;-52
2023/12/30 02:10:32;;;;;;;0.00;0.00;;;;;;;9.13;100.00;98666.78;5139612;27;20201;-52
2023/12/30 02:13:19;;;;;;;0.00;0.00;;;;;;;9.12;100.00;98668.59;5140523;27;20193;-51
2023/12/30 02:16:07;;;;;;;0.00;0.00;;;;;;;9.11;100.00;98682.75;5140619;27;20275;-51
2023/12/30 02:18:55;;;;;;;0.00;0.00;;;;;;;9.15;100.00;98675.47;5138521;27;20365;-52
2023/12/30 02:21:42;;;;;;;0.03;0.03;;;;;;;9.12;100.00;98667.75;5140470;27;20303;-52
2023/12/30 02:24:30;;;;;;;0.10;0.10;;;;;;;9.20;100.00;98668.09;5139427;27;20201;-52
2023/12/30 02:27:17;;;;;;;0.00;0.00;;;;;;;9.25;100.00;98683.63;5140357;27;20197;-52
2023/12/30 02:30:05;;;;;;;0.00;0.00;;;;;;;9.18;100.00;98677.91;5140201;27;20197;-51
2023/12/30 02:32:57;;;;;;;0.10;0.10;;;;;;;9.17;100.00;98679.72;5138950;27;20213;-52
2023/12/30 02:35:43;;;;;;;0.07;0.07;;;;;;;9.14;100.00;98681.69;5140217;27;20216;-52
2023/12/30 02:38:30;;;;;;;0.00;0.00;;;;;;;9.10;100.00;98688.13;5139809;27;20209;-52
2023/12/30 02:41:19;;;;;;;0.10;0.10;;;;;;;9.10;100.00;98691.63;5140180;27;20263;-51
2023/12/30 02:44:05;;;;;;;0.00;0.00;;;;;;;9.04;100.00;98676.16;5140228;27;20193;-52
2023/12/30 02:46:52;;;;;;;0.00;0.00;;;;;;;9.04;100.00;98691.16;5138725;27;20201;-51
2023/12/30 02:49:43;;;;;;;0.10;0.10;;;;;;;9.02;100.00;98695.72;5140211;27;20679;-51
2023/12/30 02:52:30;;;;;;;0.10;0.10;;;;;;;8.96;100.00;98701.38;5139074;27;20311;-52
2023/12/30 02:55:17;;;;;;;0.10;0.10;;;;;;;8.94;100.00;98698.84;5135444;27;20192;-52
2023/12/30 02:58:05;;;;;;;0.10;0.10;;;;;;;8.92;100.00;98708.66;5135726;27;20860;-52
2023/12/30 03:00:52;;;;;;;0.07;0.07;;;;;;;8.88;100.00;98710.66;5136775;27;20197;-51
2023/12/30 03:03:38;;;;;;;0.10;0.10;;;;;;;8.91;100.00;98700.84;5135476;27;20222;-52
2023/12/30 03:06:26;;;;;;;0.10;0.10;;;;;;;8.91;100.00;98701.69;5135717;27;20264;-52
2023/12/30 03:09:13;;;;;;;0.00;0.00;;;;;;;8.87;100.00;98703.66;5136589;27;20759;-52
2023/12/30 03:12:02;;;;;;;0.00;0.00;;;;;;;8.83;100.00;98717.19;5136515;27;20197;-51
2023/12/30 03:14:50;;;;;;;0.10;0.10;;;;;;;8.73;100.00;98718.72;5135630;27;20197;-51
2023/12/30 03:17:37;;;;;;;0.10;0.10;;;;;;;8.77;100.00;98707.84;5135090;27;20291;-51
2023/12/30 03:20:24;;;;;;;0.10;0.10;;;;;;;8.74;100.00;98713.31;5135046;27;20291;-52
2023/12/30 03:23:11;;;;;;;0.10;0.10;;;;;;;8.72;100.00;98706.44;5136426;27;20656;-52
2023/12/30 03:25:58;;;;;;;0.00;0.00;;;;;;;8.69;100.00;98709.31;5136363;27;20193;-52
2023/12/30 03:28:45;;;;;;;0.00;0.00;;;;;;;8.65;100.00;98706.00;5135200;27;20197;-52
2023/12/30 03:31:33;;;;;;;0.10;0.10;;;;;;;8.68;100.00;98708.41;5135171;27;20192;-52
2023/12/30 03:34:20;;;;;;;0.00;0.00;;;;;;;8.56;100.00;98720.63;5136128;27;20198;-52
2023/12/30 03:37:07;;;;;;;0.10;0.10;;;;;;;8.57;100.00;98721.47;5136102;27;20190;-52
2023/12/30 03:39:53;;;;;;;0.10;0.10;;;;;;;8.58;100.00;98716.06;5135741;27;20294;-52
2023/12/30 03:42:40;;;;;;;0.10;0.10;;;;;;;8.45;100.00;98732.78;5135986;27;20198;-52
2023/12/30 03:45:27;;;;;;;0.10;0.10;;;;;;;8.50;100.00;98728.09;5135945;27;20312;-51
2023/12/30 03:48:16;;;;;;;0.10;0.10;;;;;;;8.52;100.00;98736.75;5133735;27;20181;-52
2023/12/30 03:51:03;;;;;;;0.10;0.10;;;;;;;8.58;100.00;98742.47;5135947;27;20294;-51
2023/12/30 03:53:50;;;;;;;0.10;0.10;;;;;;;8.56;100.00;98732.97;5134690;27;20243;-51
2023/12/30 03:56:40;;;;;;;0.00;0.00;;;;;;;8.61;100.00;98736.19;5135676;27;20231;-52
2023/12/30 03:59:28;;;;;;;0.10;0.10;;;;;;;8.66;100.00;98739.34;5135364;27;20213;-52
2023/12/30 04:02:17;;;;;;;0.00;0.00;;;;;;;8.65;100.00;98740.31;5134277;27;20205;-52
2023/12/30 04:05:07;;;;;;;0.00;0.00;;;;;;;8.72;100.00;98728.41;5135218;27;20197;-51
2023/12/30 04:07:53;;;;;;;0.00;0.00;;;;;;;8.59;100.00;98743.34;5135593;27;20193;-52
2023/12/30 04:10:41;;;;;;;0.10;0.10;;;;;;;8.62;100.00;98737.88;5135439;27;20201;-51
2023/12/30 04:13:28;;;;;;;0.00;0.00;;;;;;;8.59;100.00;98738.06;5134454;27;20252;-52
2023/12/30 04:16:15;;;;;;;0.00;0.00;;;;;;;8.66;100.00;98744.63;5134366;27;20201;-51
2023/12/30 04:19:02;;;;;;;0.07;0.07;;;;;;;8.60;100.00;98755.59;5132716;27;20233;-51
2023/12/30 04:21:51;;;;;;;0.00;0.00;;;;;;;8.71;100.00;98761.06;5135195;27;20316;-52
2023/12/30 04:24:37;;;;;;;0.10;0.10;;;;;;;8.65;100.00;98768.50;5135095;27;20270;-52
2023/12/30 04:27:24;;;;;;;0.10;0.10;;;;;;;8.64;100.00;98765.00;5134198;27;20376;-52
2023/12/30 04:30:12;;;;;;;0.00;0.00;;;;;;;8.70;100.00;98769.91;5135159;27;20308;-52
2023/12/30 04:32:59;;;;;;;0.00;0.00;;;;;;;8.73;100.00;98761.78;5133785;27;20189;-51
2023/12/30 04:35:46;;;;;;;0.10;0.10;;;;;;;8.76;100.00;98774.78;5133838;27;20197;-51
2023/12/30 04:38:34;;;;;;;0.10;0.10;;;;;;;8.73;100.00;98775.00;5133784;27;20216;-51
2023/12/30 04:41:21;;;;;;;0.10;0.10;;;;;;;8.74;100.00;98770.56;5134903;27;20235;-51
2023/12/30 04:44:08;;;;;;;0.00;0.00;;;;;;;8.73;100.00;98780.28;5133943;27;20193;-52
2023/12/30 04:46:56;;;;;;;0.00;0.00;;;;;;;8.84;100.00;98775.16;5133430;27;20197;-51
2023/12/30 04:49:43;;;;;;;0.10;0.10;;;;;;;8.87;100.00;98776.75;5134563;27;20185;-52
2023/12/30 04:52:30;;;;;;;0.10;0.10;;;;;;;8.97;100.00;98785.78;5134680;27;20193;-52
2023/12/30 04:55:18;;;;;;;0.00;0.00;;;;;;;8.85;100.00;98787.41;5134860;27;20273;-52
2023/12/30 04:58:05;;;;;;;0.00;0.00;;;;;;;8.85;100.00;98782.13;5133492;27;20193;-51
2023/12/30 05:00:52;;;;;;;0.00;0.00;;;;;;;8.91;100.00;98788.00;5134512;27;20185;-52
2023/12/30 05:03:42;;;;;;;0.10;0.10;;;;;;;8.94;100.00;98795.72;5132083;27;20246;-51
2023/12/30 05:06:29;;;;;;;0.10;0.10;;;;;;;9.03;100.00;98803.91;5134296;27;20255;-52
2023/12/30 05:09:16;;;;;;;0.00;0.00;;;;;;;8.93;100.00;98794.88;5134344;27;20721;-52
2023/12/30 05:12:04;;;;;;;0.07;0.07;;;;;;;8.97;100.00;98799.00;5134348;27;20189;-51
2023/12/30 05:14:51;;;;;;;0.10;0.10;;;;;;;8.95;100.00;98798.25;5134148;27;20193;-52
2023/12/30 05:17:38;;;;;;;0.00;0.00;;;;;;;8.92;100.00;98792.34;5132415;27;20193;-51
2023/12/30 05:20:25;;;;;;;0.00;0.00;;;;;;;8.75;100.00;98796.03;5133780;27;20224;-52
2023/12/30 05:23:12;;;;;;;0.00;0.00;;;;;;;8.72;100.00;98802.34;5133946;27;20251;-52
2023/12/30 05:25:59;;;;;;;0.10;0.10;;;;;;;8.62;100.00;98788.03;5134067;27;20188;-51
2023/12/30 05:28:48;;;;;;;0.00;0.00;;;;;;;8.38;100.00;98790.38;5133989;27;20205;-52
2023/12/30 05:31:35;;;;;;;0.00;0.00;;;;;;;8.33;100.00;98784.50;5134007;27;20197;-52
2023/12/30 05:34:22;;;;;;;0.10;0.10;;;;;;;8.26;100.00;98781.38;5133966;27;20317;-51
2023/12/30 05:37:09;;;;;;;0.10;0.10;;;;;;;8.33;100.00;98787.13;5134124;27;20201;-50
2023/12/30 05:39:56;;;;;;;0.00;0.00;;;;;;;8.28;100.00;98790.03;5133564;28;20327;-51
2023/12/30 05:42:43;;;;;;;0.10;0.10;;;;;;;8.19;100.00;98787.97;5133996;28;20222;-52
2023/12/30 05:45:31;;;;;;;0.00;0.00;;;;;;;8.26;100.00;98791.94;5133989;28;20247;-52
2023/12/30 05:48:18;;;;;;;0.00;0.00;;;;;;;8.40;100.00;98795.56;5132478;28;20217;-51
2023/12/30 05:51:05;;;;;;;0.10;0.10;;;;;;;8.35;100.00;98806.41;5133781;28;20197;-52
2023/12/30 05:53:52;;;;;;;0.00;0.00;;;;;;;8.43;100.00;98800.66;5133886;28;20671;-52
2023/12/30 05:56:39;;;;;;;0.00;0.00;;;;;;;8.40;100.00;98806.97;5133643;28;20189;-52
2023/12/30 05:59:26;;;;;;;0.00;0.00;;;;;;;8.39;100.00;98810.53;5133629;28;20766;-51
2023/12/30 06:02:14;;;;;;;0.10;0.10;;;;;;;8.34;100.00;98812.59;5132497;28;20201;-51
2023/12/30 06:05:01;;;;;;;0.00;0.00;;;;;;;8.44;100.00;98815.53;5133568;28;20197;-52
2023/12/30 06:07:48;;;;;;;0.10;0.10;;;;;;;8.44;100.00;98826.94;5133724;28;20205;-52
2023/12/30 06:10:34;;;;;;;0.00;0.00;;;;;;;8.42;100.00;98830.63;5133742;28;20217;-51
2023/12/30 06:13:21;;;;;;;0.00;0.00;;;;;;;8.36;100.00;98831.00;5133591;28;20193;-52
2023/12/30 06:16:10;;;;;;;0.00;0.00;;;;;;;8.53;100.00;98833.47;5133536;28;20189;-52
2023/12/30 06:18:58;;;;;;;0.00;0.00;;;;;;;8.48;100.00;98835.53;5132119;28;20302;-52
2023/12/30 06:21:45;;;;;;;0.10;0.10;;;;;;;8.41;100.00;98832.41;5133504;28;20197;-52
2023/12/30 06:24:32;;;;;;;0.00;0.00;;;;;;;8.43;100.00;98835.81;5133528;28;20205;-52
2023/12/30 06:27:20;;;;;;;0.00;0.00;;;;;;;8.33;100.00;98829.34;5134056;27;20713;-52
2023/12/30 06:30:08;;;;;;;0.00;0.00;;;;;;;8.42;100.00;98841.19;5137262;27;20194;-54
2023/12/30 06:32:54;;;;;;;0.00;0.00;;;;;;;8.34;100.00;98836.34;5136125;27;20200;-52
2023/12/30 06:35:43;;;;;;;0.00;0.00;;;;;;;8.36;100.00;98837.13;5137438;27;20300;-52
2023/12/30 06:38:30;;;;;;;0.00;0.00;;;;;;;8.29;100.00;98838.38;5137301;27;20201;-52
2023/12/30 06:41:19;;;;;;;0.00;0.00;;;;;;;8.32;100.00;98840.84;5136963;27;20247;-52
2023/12/30 06:44:06;;;;;;;0.00;0.00;;;;;;;8.00;100.00;98848.88;5137353;27;20186;-52
2023/12/30 06:46:53;;;;;;;0.10;0.10;;;;;;;8.06;100.00;98857.38;5135744;27;20187;-52
2023/12/30 06:49:40;;;;;;;0.10;0.10;;;;;;;8.06;100.00;98852.09;5137056;27;20255;-52
2023/12/30 06:52:28;;;;;;;0.00;0.00;;;;;;;8.07;100.00;98851.16;5137207;27;20275;-52
2023/12/30 06:55:15;;;;;;;0.10;0.10;;;;;;;8.01;100.00;98860.28;5136751;27;20190;-52
2023/12/30 06:58:11;;;;;;;0.00;0.00;;;;;;;7.91;100.00;98856.47;5136921;27;20197;-52
2023/12/30 07:00:58;;;;;;;0.00;0.00;;;;;;;7.93;100.00;98865.16;5136676;27;20339;-52
2023/12/30 07:03:45;;;;;;;0.00;0.00;;;;;;;8.09;100.00;98868.59;5135548;27;20266;-52
2023/12/30 07:06:32;;;;;;;0.10;0.10;;;;;;;8.11;100.00;98876.44;5136780;27;20247;-52
2023/12/30 07:09:21;;;;;;;0.00;0.00;;;;;;;8.17;100.00;98878.69;5136731;27;20201;-52
2023/12/30 07:12:08;;;;;;;0.07;0.07;;;;;;;8.18;100.00;98886.50;5136503;27;20698;-53
2023/12/30 07:14:55;;;;;;;0.10;0.10;;;;;;;8.29;100.00;98881.44;5136532;27;20182;-52
2023/12/30 07:17:41;;;;;;;0.00;0.00;;;;;;;8.35;100.00;98884.72;5135222;27;20188;-52
2023/12/30 07:20:28;;;;;;;0.10;0.10;;;;;;;8.43;100.00;98888.59;5135975;27;20228;-52
2023/12/30 07:23:15;;;;;;;0.10;0.10;;;;;;;8.54;100.00;98899.34;5136428;27;20193;-52
2023/12/30 07:26:04;;;;;;;0.10;0.10;;;;;;;8.56;100.00;98894.81;5136237;27;20193;-52
2023/12/30 07:28:50;;;;;;;0.10;0.10;;;;;;;8.64;100.00;98901.44;5136246;27;20190;-53
2023/12/30 07:31:37;;;;;;;0.00;0.00;;;;;;;8.58;100.00;98915.84;5135819;27;20205;-52
2023/12/30 07:34:24;;;;;;;0.00;0.00;;;;;;;8.57;100.00;98915.00;5136079;27;20686;-52
2023/12/30 07:37:11;;;;;;;0.00;0.00;;;;;;;8.64;100.00;98915.50;5136017;27;20197;-51
2023/12/30 07:39:58;;;;;;;0.00;0.00;;;;;;;8.65;100.00;98911.06;5135325;27;20213;-52
2023/12/30 07:42:46;;;;;;;0.00;0.00;;;;;;;8.67;100.00;98922.38;5136006;27;20193;-52
2023/12/30 07:45:33;;;;;;;0.00;0.00;;;;;;;8.76;100.00;98909.47;5136043;27;20193;-52
2023/12/30 07:48:20;;;;;;;0.00;0.00;;;;;;;8.82;100.00;98917.03;5134606;27;20202;-52
2023/12/30 07:51:07;;;;;;;0.00;0.00;;;;;;;8.85;100.00;98908.91;5135990;27;20194;-53
2023/12/30 07:53:54;;;;;;;0.00;0.00;;;;;;;8.95;100.00;98921.56;5135779;27;20238;-53
2023/12/30 07:56:41;;;;;;;0.10;0.10;;;;;;;9.00;100.00;98920.34;5135765;27;20259;-52
2023/12/30 07:59:29;;;;;;;0.07;0.07;;;;;;;8.99;100.00;98921.28;5134995;27;20717;-52
2023/12/30 08:02:16;;;;;;;0.00;0.00;;;;;;;9.01;100.00;98931.75;5134345;27;20746;-53
2023/12/30 08:05:03;;;;;;;0.00;0.00;;;;;;;9.05;100.00;98926.16;5135533;27;20750;-53
2023/12/30 08:07:49;;;;;;;0.00;0.00;;;;;;;9.08;100.00;98938.38;5135498;27;20192;-52
2023/12/30 08:10:37;;;;;;;0.00;0.00;;;;;;;9.19;100.00;98933.25;5135364;27;20193;-52
2023/12/30 08:13:23;;;;;;;0.00;0.00;;;;;;;9.28;100.00;98935.34;5135343;27;20198;-51
2023/12/30 08:16:12;;;;;;;0.00;0.00;;;;;;;9.48;100.00;98935.88;5135277;27;20611;-52
2023/12/30 08:18:58;;;;;;;0.00;0.00;;;;;;;9.40;100.00;98937.19;5133731;27;20225;-52
2023/12/30 08:21:45;;;;;;;0.00;0.00;;;;;;;9.52;100.00;98930.28;5134902;27;20707;-53
2023/12/30 08:24:32;;;;;;;0.00;0.00;;;;;;;9.46;100.00;98925.41;5134850;27;20660;-52
2023/12/30 08:27:19;;;;;;;0.10;0.10;;;;;;;9.34;100.00;98918.22;5135220;27;20197;-52
2023/12/30 08:30:07;;;;;;;0.10;0.10;;;;;;;9.22;100.00;98917.22;5135163;27;20197;-52
2023/12/30 08:32:56;;;;;;;0.10;0.10;;;;;;;8.95;100.00;98913.63;5133664;27;20205;-53
2023/12/30 08:35:43;;;;;;;0.00;0.00;;;;;;;9.19;100.00;98920.06;5135005;27;20219;-52
2023/12/30 08:38:31;;;;;;;0.10;0.10;;;;;;;9.10;100.00;98913.53;5134866;27;20213;-52
2023/12/30 08:41:23;;;;;;;0.00;0.00;;;;;;;9.03;100.00;98914.84;5134608;27;20209;-52
2023/12/30 08:44:10;;;;;;;0.00;0.00;;;;;;;9.08;100.00;98923.38;5134916;27;20255;-52
2023/12/30 08:46:57;;;;;;;0.00;0.00;;;;;;;9.07;100.00;98934.00;5129370;27;20233;-53
2023/12/30 08:49:45;;;;;;;0.10;0.10;;;;;;;9.15;100.00;98935.22;5133594;27;20197;-52
2023/12/30 08:52:32;;;;;;;0.10;0.10;;;;;;;9.24;100.00;98938.25;5132802;27;20267;-53
2023/12/30 08:55:19;;;;;;;0.10;0.10;;;;;;;9.30;100.00;98932.59;5132861;27;20193;-52
2023/12/30 08:58:06;;;;;;;0.00;0.00;;;;;;;9.38;100.00;98939.09;5133038;27;20655;-52
2023/12/30 09:00:53;;;;;;;0.00;0.00;;;;;;;9.36;100.00;98945.41;5133194;27;20283;-52
2023/12/30 09:03:41;;;;;;;0.10;0.10;;;;;;;9.46;100.00;98947.41;5132804;27;20234;-52
2023/12/30 09:06:29;;;;;;;0.10;0.10;;;;;;;9.54;100.00;98941.59;5134379;27;20197;-52
2023/12/30 09:09:16;;;;;;;0.00;0.00;;;;;;;9.59;100.00;98942.19;5134299;27;20300;-53
2023/12/30 09:12:05;;;;;;;0.00;0.00;;;;;;;9.65;100.00;98938.28;5134073;27;20197;-52
2023/12/30 09:14:51;;;;;;;0.00;0.00;;;;;;;9.69;100.00;98947.72;5134033;27;20206;-52
2023/12/30 09:17:38;;;;;;;0.10;0.10;;;;;;;9.78;100.00;98952.44;5132916;27;20201;-52
2023/12/30 09:20:25;;;;;;;0.10;0.10;;;;;;;9.89;100.00;98957.03;5133696;27;20710;-52
2023/12/30 09:23:14;;;;;;;0.00;0.00;;;;;;;9.95;100.00;98959.28;5133975;27;20202;-52
2023/12/30 09:26:00;;;;;;;0.10;0.10;;;;;;;9.80;100.00;98965.56;5134169;27;20200;-52
2023/12/30 09:28:47;;;;;;;0.00;0.00;;;;;;;9.95;100.00;98973.38;5134086;27;20197;-53
2023/12/30 09:31:34;;;;;;;0.00;0.00;;;;;;;9.80;100.00;98982.28;5133494;27;20189;-52
2023/12/30 09:34:21;;;;;;;0.00;0.00;;;;;;;9.83;100.00;98986.50;5134097;27;20198;-52
2023/12/30 09:37:24;;;;;;;0.00;0.00;;;;;;;9.60;100.00;98986.19;5134067;27;20235;-52
2023/12/30 09:40:12;;;;;;;0.07;0.07;;;;;;;9.78;100.00;98984.19;5133897;27;20193;-52
2023/12/30 09:43:04;;;;;;;0.00;0.00;;;;;;;9.90;100.00;99001.06;5134071;28;20198;-52
2023/12/30 09:45:54;;;;;;;0.00;0.00;;;;;;;9.92;100.00;98994.72;5133987;28;20186;-53
2023/12/30 09:48:43;;;;;;;0.00;0.00;;;;;;;10.14;100.00;98996.84;5132515;28;20210;-52
2023/12/30 09:51:32;;;;;;;0.10;0.10;;;;;;;10.25;100.00;98997.03;5133828;28;20255;-52
2023/12/30 09:54:18;;;;;;;0.03;0.03;;;;;;;10.30;100.00;99002.84;5133914;28;20318;-52
2023/12/30 09:57:07;;;;;;;0.10;0.10;;;;;;;10.40;100.00;98991.66;5133865;28;20250;-52
2023/12/30 09:59:55;;;;;;;0.00;0.00;;;;;;;10.73;100.00;99010.63;5133947;28;20219;-52
2023/12/30 10:02:43;;;;;;;0.10;0.10;;;;;;;10.90;100.00;99006.81;5133227;27;20319;-52
2023/12/30 10:05:30;;;;;;;0.03;0.03;;;;;;;10.98;100.00;99007.16;5138010;27;20312;-53
2023/12/30 10:08:17;;;;;;;0.00;0.00;;;;;;;10.91;100.00;99013.00;5137963;27;20239;-53
2023/12/30 10:11:09;;;;;;;0.00;0.00;;;;;;;10.84;100.00;99012.56;5137684;27;20192;-52
2023/12/30 10:13:57;;;;;;;0.10;0.10;;;;;;;11.12;100.00;99003.56;5137794;27;20305;-52
2023/12/30 10:16:44;;;;;;;0.03;0.03;;;;;;;11.05;100.00;99010.25;5136403;27;20552;-52
2023/12/30 10:19:31;;;;;;;0.00;0.00;;;;;;;10.68;100.00;99015.38;5137205;27;20283;-52
2023/12/30 10:22:18;;;;;;;0.00;0.00;;;;;;;10.54;100.00;99000.41;5137464;27;20251;-52
2023/12/30 10:25:07;;;;;;;0.07;0.07;;;;;;;10.59;100.00;99000.94;5137575;27;20193;-53
2023/12/30 10:27:55;;;;;;;0.00;0.00;;;;;;;10.83;100.00;99001.09;5137358;27;20338;-53
2023/12/30 10:30:43;;;;;;;0.00;0.00;;;;;;;11.28;100.00;98987.44;5137575;27;20193;-53
2023/12/30 10:33:31;;;;;;;0.00;0.00;;;;;;;11.43;100.00;98987.22;5136043;27;20229;-52
2023/12/30 10:36:19;;;;;;;0.00;0.00;;;;;;;11.59;100.00;98986.16;5137125;27;20189;-53
2023/12/30 10:39:06;;;;;;;0.10;0.10;;;;;;;12.52;100.00;98982.00;5138618;27;20296;-53
2023/12/30 10:41:53;;;;;;;0.00;0.00;;;;;;;12.84;100.00;98974.28;5137022;27;20324;-53
2023/12/30 10:44:40;;;;;;;0.00;0.00;;;;;;;13.14;100.00;98965.75;5137008;27;20256;-53
2023/12/30 10:47:28;;;;;;;0.00;0.00;;;;;;;13.09;100.00;98960.78;5135908;27;20193;-53
2023/12/30 10:50:15;;;;;;;0.10;0.10;;;;;;;13.52;100.00;98961.94;5137070;27;20189;-53
2023/12/30 10:53:07;;;;;;;0.00;0.00;;;;;;;13.47;100.00;98951.66;5136892;27;20185;-53
2023/12/30 10:55:56;;;;;;;0.00;0.00;;;;;;;13.53;100.00;98947.66;5136958;27;20251;-51
2023/12/30 10:58:44;;;;;;;0.00;0.00;;;;;;;14.72;100.00;98940.53;5136328;27;20259;-50
2023/12/30 11:01:33;;;;;;;0.10;0.10;;;;;;;15.10;96.63;98946.13;5135997;27;20214;-51
2023/12/30 11:04:22;;;;;;;0.10;0.10;;;;;;;15.64;89.36;98934.31;5135885;27;20267;-51
2023/12/30 11:07:14;;;;;;;0.10;0.10;;;;;;;15.43;88.38;98953.00;5136753;27;20769;-51
2023/12/30 11:10:01;;;;;;;0.10;0.10;;;;;;;15.12;87.13;98941.50;5136780;27;20196;-51
2023/12/30 11:12:48;;;;;;;0.07;0.07;;;;;;;14.79;89.27;98960.38;5136585;27;20640;-51
2023/12/30 11:15:38;;;;;;;0.10;0.10;;;;;;;15.23;87.69;98939.72;5135416;27;20198;-51
2023/12/30 11:18:45;;;;;;;0.00;0.00;;;;;;;15.79;87.01;98934.78;5135144;27;20198;-51
2023/12/30 11:21:42;;;;;;;0.00;0.00;;;;;;;15.91;82.46;98931.00;5136379;27;20216;-51
2023/12/30 11:24:29;;;;;;;0.10;0.10;;;;;;;15.30;82.29;98928.38;5136378;27;20201;-51
2023/12/30 11:27:17;;;;;;;0.00;0.00;;;;;;;14.68;89.49;98931.97;5136392;27;20239;-51
2023/12/30 11:30:05;;;;;;;0.00;0.00;;;;;;;14.03;91.81;98938.25;5136322;27;20660;-51
2023/12/30 11:32:54;;;;;;;0.00;0.00;;;;;;;14.52;93.69;98916.41;5135002;27;20721;-51
2023/12/30 11:35:43;;;;;;;0.00;0.00;;;;;;;14.48;95.02;98917.66;5136206;27;20193;-52
2023/12/30 11:38:32;;;;;;;0.00;0.00;;;;;;;15.71;88.41;98918.59;5135061;27;20227;-52
2023/12/30 11:41:20;;;;;;;0.00;0.00;;;;;;;15.94;79.99;98917.38;5135997;27;20190;-52
2023/12/30 11:44:07;;;;;;;0.00;0.00;;;;;;;15.60;80.14;98908.84;5136026;27;20198;-52
2023/12/30 11:46:54;;;;;;;0.03;0.03;;;;;;;15.71;77.52;98914.09;5134636;27;20442;-52
2023/12/30 11:49:41;;;;;;;0.00;0.00;;;;;;;15.16;77.41;98926.94;5136092;27;20194;-51
2023/12/30 11:52:29;;;;;;;0.00;0.00;;;;;;;14.39;85.32;98920.22;5135795;27;20258;-51
2023/12/30 11:55:17;;;;;;;0.00;0.00;;;;;;;13.43;90.74;98908.50;5135754;27;20201;-51
2023/12/30 11:58:04;;;;;;;0.00;0.00;;;;;;;13.37;96.71;98906.31;5135651;27;20193;-51
2023/12/30 12:00:51;;;;;;;0.10;0.10;;;;;;;13.27;97.09;98915.13;5135847;27;20198;-51
2023/12/30 12:03:38;;;;;;;0.00;0.00;;;;;;;12.76;99.59;98895.13;5133789;27;20232;-51
2023/12/30 12:06:26;;;;;;;0.00;0.00;;;;;;;13.11;99.65;98900.34;5135560;27;20197;-51
2023/12/30 12:09:13;;;;;;;0.00;0.00;;;;;;;12.82;99.91;98884.00;5136196;27;20194;-52
2023/12/30 12:12:03;;;;;;;0.00;0.00;;;;;;;12.38;100.00;98882.13;5134841;27;20196;-52
2023/12/30 12:14:51;;;;;;;0.00;0.00;;;;;;;12.28;100.00;98897.91;5135402;27;20201;-52
2023/12/30 12:17:38;;;;;;;0.10;0.10;;;;;;;12.40;100.00;98887.31;5134136;27;20676;-52
2023/12/30 12:20:26;;;;;;;0.00;0.00;;;;;;;12.99;100.00;98884.50;5134811;27;20315;-52
2023/12/30 12:23:13;;;;;;;0.00;0.00;;;;;;;13.07;98.19;98885.59;5134980;27;20699;-52
2023/12/30 12:26:00;;;;;;;0.00;0.00;;;;;;;12.96;97.40;98879.44;5135008;27;20255;-52
2023/12/30 12:28:49;;;;;;;0.03;0.03;;;;;;;12.96;97.79;98877.63;5135000;27;20197;-52
2023/12/30 12:31:35;;;;;;;0.00;0.00;;;;;;;13.38;95.29;98899.16;5133677;27;20188;-52
2023/12/30 12:34:23;;;;;;;0.00;0.00;;;;;;;13.09;95.11;98888.13;5135086;27;20209;-52
2023/12/30 12:37:12;;;;;;;0.00;0.00;;;;;;;12.82;97.43;98891.97;5134702;27;20369;-52
2023/12/30 12:39:59;;;;;;;0.00;0.00;;;;;;;12.96;96.26;98887.44;5135050;27;20197;-53
2023/12/30 12:42:46;;;;;;;0.00;0.00;;;;;;;13.12;93.62;98891.44;5134611;27;20322;-52
2023/12/30 12:45:34;;;;;;;0.00;0.00;;;;;;;13.35;92.74;98894.94;5134452;27;20206;-52
2023/12/30 12:48:21;;;;;;;0.10;0.10;;;;;;;13.23;94.41;98887.94;5133255;27;20197;-52
2023/12/30 12:51:08;;;;;;;0.00;0.00;;;;;;;13.64;91.40;98899.75;5134752;27;20704;-52
2023/12/30 12:53:54;;;;;;;0.03;0.03;;;;;;;13.73;86.19;98886.53;5134245;27;20227;-52
2023/12/30 12:56:42;;;;;;;0.10;0.10;;;;;;;14.00;85.96;98879.94;5134213;27;20200;-52
2023/12/30 12:59:29;;;;;;;0.10;0.10;;;;;;;14.40;83.52;98873.94;5133462;27;20357;-52
2023/12/30 13:02:18;;;;;;;0.10;0.10;;;;;;;13.42;88.05;98874.03;5131783;27;20197;-52
2023/12/30 13:05:06;;;;;;;0.00;0.00;;;;;;;12.65;93.37;98870.34;5133975;27;20321;-52
2023/12/30 13:07:52;;;;;;;0.10;0.10;;;;;;;12.37;97.36;98869.81;5133320;27;20199;-53